Time;durP1;ratioP1;P1;durP2;ratioP2;P2;SDS_P1;SDS_P2;PMS_P1;PMS_P2;Temp;Humidity;BMP_temperature;BMP_pressure;BME280_temperature;BME280_humidity;BME280_pressure;Samples;Min_cycle;Max_cycle;Signal;HPM_P1;HPM_P2
2021/12/11 00:02:10;;;;;;;61.50;26.33;;;;;;;;;;4999342;28;20101;-80
2021/12/11 00:04:38;;;;;;;56.25;26.58;;;;;;;;;;4999110;28;20026;-80
2021/12/11 00:07:05;;;;;;;57.83;24.67;;;;;;;;;;4997270;28;20340;-80
2021/12/11 00:09:35;;;;;;;49.63;24.08;;;;;;;;;;4982936;28;20018;-80
2021/12/11 00:12:04;;;;;;;55.50;26.40;;;;;;;;;;4998659;28;20021;-80
2021/12/11 00:14:35;;;;;;;68.53;27.63;;;;;;;;;;4982817;28;20389;-81
2021/12/11 00:17:01;;;;;;;46.38;25.63;;;;;;;;;;4998808;28;20034;-80
2021/12/11 00:19:29;;;;;;;46.58;24.58;;;;;;;;;;4998599;28;20045;-80
2021/12/11 00:22:01;;;;;;;51.47;23.85;;;;;;;;;;4997784;28;20021;-80
2021/12/11 00:24:30;;;;;;;56.53;28.13;;;;;;;;;;4999888;28;20489;-81
2021/12/11 00:26:59;;;;;;;46.90;25.42;;;;;;;;;;4999729;28;20050;-81
2021/12/11 00:29:26;;;;;;;50.08;25.40;;;;;;;;;;4987554;23;20054;-80
2021/12/11 00:31:54;;;;;;;57.08;24.83;;;;;;;;;;5002267;28;20101;-80
2021/12/11 00:34:21;;;;;;;55.55;26.58;;;;;;;;;;4998043;28;20081;-80
2021/12/11 00:36:56;;;;;;;53.22;23.58;;;;;;;;;;4981894;28;20417;-80
2021/12/11 00:42:00;;;;;;;50.53;24.00;;;;;;;;;;5494090;23;20221;-79
2021/12/11 00:49:30;;;;;;;55.08;24.23;;;;;;;;;;5624894;23;20439;-81
2021/12/11 00:51:56;;;;;;;50.72;26.70;;;;;;;;;;5002895;28;20108;-81
2021/12/11 00:54:23;;;;;;;55.55;26.45;;;;;;;;;;5003177;28;20041;-81
2021/12/11 00:56:49;;;;;;;56.17;29.33;;;;;;;;;;5019293;23;20045;-82
2021/12/11 00:59:19;;;;;;;73.28;34.88;;;;;;;;;;5001507;28;20029;-81
2021/12/11 01:01:45;;;;;;;71.63;33.92;;;;;;;;;;5001629;28;20030;-82
2021/12/11 01:04:13;;;;;;;72.18;37.35;;;;;;;;;;5318907;23;20101;-81
2021/12/11 01:06:45;;;;;;;50.53;23.23;;;;;;;;;;5000169;28;20069;-81
2021/12/11 01:09:13;;;;;;;60.55;29.48;;;;;;;;;;4999065;28;20368;-80
2021/12/11 01:11:42;;;;;;;58.17;29.60;;;;;;;;;;4998296;28;20345;-81
2021/12/11 01:14:26;;;;;;;53.80;29.38;;;;;;;;;;4998829;28;20037;-81
2021/12/11 01:16:57;;;;;;;69.88;34.70;;;;;;;;;;4981581;28;20029;-80
2021/12/11 01:19:24;;;;;;;79.93;39.55;;;;;;;;;;5002642;28;20336;-81
2021/12/11 01:21:58;;;;;;;73.35;41.33;;;;;;;;;;4999882;28;20169;-81
2021/12/11 01:24:30;;;;;;;121.80;53.42;;;;;;;;;;5002568;28;20022;-81
2021/12/11 01:26:59;;;;;;;99.47;53.15;;;;;;;;;;5002180;28;20018;-82
2021/12/11 01:29:25;;;;;;;119.32;62.35;;;;;;;;;;5003028;28;20334;-81
2021/12/11 01:31:52;;;;;;;105.03;56.78;;;;;;;;;;4999042;28;20599;-81
2021/12/11 01:34:19;;;;;;;108.95;60.55;;;;;;;;;;5004411;23;20046;-81
2021/12/11 01:36:45;;;;;;;119.28;54.85;;;;;;;;;;4998863;28;20073;-81
2021/12/11 01:39:13;;;;;;;121.45;56.38;;;;;;;;;;5781008;23;20017;-79
2021/12/11 01:41:40;;;;;;;118.75;58.25;;;;;;;;;;5049194;23;20137;-82
2021/12/11 01:44:09;;;;;;;107.32;52.95;;;;;;;;;;4999081;28;20026;-82
2021/12/11 01:46:36;;;;;;;123.35;60.08;;;;;;;;;;4997520;28;20433;-82
2021/12/11 01:49:05;;;;;;;131.05;63.08;;;;;;;;;;5001653;28;20030;-82
2021/12/11 01:51:35;;;;;;;122.57;59.83;;;;;;;;;;5015069;28;20026;-83
2021/12/11 01:54:25;;;;;;;114.97;56.92;;;;;;;;;;5014842;28;20049;-82
2021/12/11 01:56:59;;;;;;;120.60;58.13;;;;;;;;;;5177361;23;20050;-78
2021/12/11 01:59:28;;;;;;;132.77;63.10;;;;;;;;;;5003316;23;20046;-82
2021/12/11 02:01:54;;;;;;;116.78;56.90;;;;;;;;;;4997220;28;20015;-82
2021/12/11 02:04:21;;;;;;;104.18;56.90;;;;;;;;;;5001597;28;20032;-82
2021/12/11 02:06:49;;;;;;;116.93;64.47;;;;;;;;;;5009682;28;20014;-82
2021/12/11 02:09:19;;;;;;;129.45;65.70;;;;;;;;;;5008524;28;20069;-83
2021/12/11 02:11:47;;;;;;;128.30;70.47;;;;;;;;;;5008437;28;20037;-82
2021/12/11 02:19:28;;;;;;;118.00;63.60;;;;;;;;;;5345099;23;20021;-77
2021/12/11 02:40:44;;;;;;;68.03;28.77;;;;;;;;;;5188708;23;20051;-79
2021/12/11 02:53:29;;;;;;;63.17;29.52;;;;;;;;;;5760912;23;20064;-77
2021/12/11 02:55:58;;;;;;;51.25;26.60;;;;;;;;;;5017742;23;20054;-77
2021/12/11 02:58:26;;;;;;;62.67;30.13;;;;;;;;;;5059239;23;20061;-76
2021/12/11 03:00:56;;;;;;;55.75;24.02;;;;;;;;;;5048507;23;20080;-77
2021/12/11 03:05:58;;;;;;;99.88;54.63;;;;;;;;;;5047328;23;20101;-83
2021/12/11 03:08:26;;;;;;;83.55;38.85;;;;;;;;;;5022499;23;20520;-77
2021/12/11 03:11:11;;;;;;;67.13;32.10;;;;;;;;;;4981801;28;20130;-77
2021/12/11 03:13:40;;;;;;;63.72;32.65;;;;;;;;;;4979164;28;20057;-77
2021/12/11 03:16:09;;;;;;;73.05;34.15;;;;;;;;;;5043873;23;20132;-77
2021/12/11 03:18:36;;;;;;;70.03;34.53;;;;;;;;;;5085227;23;20043;-77
2021/12/11 03:21:03;;;;;;;66.30;32.90;;;;;;;;;;5115163;23;20052;-78
2021/12/11 03:23:35;;;;;;;47.65;26.23;;;;;;;;;;5101982;23;20400;-78
2021/12/11 03:28:37;;;;;;;70.60;34.53;;;;;;;;;;5412093;23;20046;-77
2021/12/11 03:31:07;;;;;;;70.88;34.45;;;;;;;;;;4994984;28;20022;-77
2021/12/11 03:33:35;;;;;;;46.78;26.23;;;;;;;;;;5001645;23;20459;-77
2021/12/11 03:36:03;;;;;;;55.08;30.45;;;;;;;;;;5021120;23;20110;-82
2021/12/11 03:38:32;;;;;;;57.95;28.77;;;;;;;;;;5002323;28;20019;-82
2021/12/11 03:41:01;;;;;;;50.90;28.15;;;;;;;;;;5080992;23;20050;-77
2021/12/11 03:45:54;;;;;;;29.60;16.73;;;;;;;;;;5118963;23;20077;-77
2021/12/11 03:48:28;;;;;;;27.05;13.55;;;;;;;;;;5020505;23;20142;-82
2021/12/11 03:50:55;;;;;;;20.85;11.00;;;;;;;;;;5109237;23;20042;-81
2021/12/11 03:53:21;;;;;;;28.38;11.48;;;;;;;;;;5008224;28;20451;-81
2021/12/11 03:55:56;;;;;;;21.25;9.43;;;;;;;;;;5010480;28;20033;-83
2021/12/11 04:01:00;;;;;;;13.75;8.65;;;;;;;;;;5115835;23;20046;-82
2021/12/11 04:03:28;;;;;;;16.83;9.37;;;;;;;;;;5009792;28;20310;-81
2021/12/11 04:05:55;;;;;;;22.95;7.88;;;;;;;;;;5097456;23;20463;-82
2021/12/11 04:08:26;;;;;;;35.40;8.50;;;;;;;;;;5006071;28;20042;-83
2021/12/11 04:10:52;;;;;;;22.95;8.55;;;;;;;;;;5008394;28;20018;-82
2021/12/11 04:15:47;;;;;;;23.20;9.68;;;;;;;;;;5014039;23;20053;-82
2021/12/11 04:18:15;;;;;;;19.08;8.60;;;;;;;;;;5008122;28;20128;-82
2021/12/11 04:20:44;;;;;;;12.02;4.95;;;;;;;;;;5006938;28;20087;-82
2021/12/11 04:23:12;;;;;;;16.42;5.65;;;;;;;;;;4994859;28;20029;-85
2021/12/11 04:28:10;;;;;;;24.55;7.38;;;;;;;;;;5014353;23;20062;-77
2021/12/11 04:30:37;;;;;;;18.77;7.13;;;;;;;;;;4995416;28;20019;-78
2021/12/11 04:33:04;;;;;;;16.77;8.05;;;;;;;;;;5024920;23;20108;-78
2021/12/11 04:35:36;;;;;;;15.55;8.18;;;;;;;;;;4959904;28;20037;-79
2021/12/11 04:48:38;;;;;;;19.70;7.30;;;;;;;;;;5407752;23;20512;-82
2021/12/11 05:09:27;;;;;;;18.88;7.82;;;;;;;;;;5012825;23;20128;-76
2021/12/11 05:12:14;;;;;;;24.45;7.20;;;;;;;;;;4979249;28;20385;-77
2021/12/11 05:14:42;;;;;;;23.77;8.07;;;;;;;;;;4999448;23;20046;-77
2021/12/11 05:17:10;;;;;;;38.38;10.65;;;;;;;;;;5124442;23;20046;-82
2021/12/11 05:19:37;;;;;;;20.73;7.28;;;;;;;;;;5503722;23;20033;-79
2021/12/11 05:22:06;;;;;;;26.58;8.50;;;;;;;;;;5008753;23;20057;-78
2021/12/11 05:24:33;;;;;;;20.88;8.38;;;;;;;;;;5306539;23;20050;-77
2021/12/11 05:27:02;;;;;;;25.40;9.93;;;;;;;;;;4996431;28;20133;-77
2021/12/11 05:29:28;;;;;;;20.55;9.18;;;;;;;;;;4996710;28;20031;-77
2021/12/11 05:31:56;;;;;;;25.05;10.77;;;;;;;;;;5052009;23;20069;-78
2021/12/11 05:34:25;;;;;;;35.05;12.27;;;;;;;;;;5167851;23;20038;-82
2021/12/11 05:36:51;;;;;;;27.08;10.45;;;;;;;;;;5004356;28;20092;-82
2021/12/11 05:39:18;;;;;;;18.08;9.43;;;;;;;;;;5083453;23;20050;-80
2021/12/11 05:41:45;;;;;;;32.30;10.88;;;;;;;;;;5235886;23;20042;-81
2021/12/11 05:44:12;;;;;;;28.02;9.90;;;;;;;;;;5120411;23;20038;-77
2021/12/11 05:46:38;;;;;;;29.75;11.45;;;;;;;;;;5008951;23;20104;-79
2021/12/11 05:49:05;;;;;;;27.23;9.38;;;;;;;;;;4998942;28;20029;-79
2021/12/11 05:51:38;;;;;;;22.35;9.27;;;;;;;;;;5004391;23;20048;-78
2021/12/11 05:54:06;;;;;;;27.63;9.57;;;;;;;;;;5008707;23;20348;-76
2021/12/11 05:56:36;;;;;;;33.17;12.00;;;;;;;;;;5020948;23;20042;-82
2021/12/11 05:59:04;;;;;;;32.65;10.13;;;;;;;;;;5011848;28;20014;-82
2021/12/11 06:01:36;;;;;;;26.17;9.45;;;;;;;;;;5007204;28;20022;-82
2021/12/11 06:04:05;;;;;;;27.45;8.18;;;;;;;;;;5014555;23;20108;-82
2021/12/11 06:06:32;;;;;;;29.90;8.90;;;;;;;;;;4991547;28;20064;-82
2021/12/11 06:08:58;;;;;;;26.20;9.55;;;;;;;;;;5023394;23;20437;-76
2021/12/11 06:11:24;;;;;;;24.90;8.68;;;;;;;;;;5000048;28;20100;-77
2021/12/11 06:13:50;;;;;;;28.73;7.35;;;;;;;;;;4998660;28;20030;-76
2021/12/11 06:16:16;;;;;;;45.75;12.88;;;;;;;;;;5013390;23;20361;-78
2021/12/11 06:18:45;;;;;;;22.35;8.27;;;;;;;;;;4999227;28;20026;-78
2021/12/11 06:21:11;;;;;;;24.25;9.52;;;;;;;;;;4999336;28;20018;-77
2021/12/11 06:23:37;;;;;;;33.65;9.82;;;;;;;;;;5008889;23;20451;-82
2021/12/11 06:26:03;;;;;;;36.03;9.65;;;;;;;;;;5004190;28;20038;-82
2021/12/11 06:28:30;;;;;;;28.60;8.25;;;;;;;;;;5002517;28;20030;-82
2021/12/11 06:30:58;;;;;;;15.45;7.50;;;;;;;;;;5004408;23;20039;-77
2021/12/11 06:33:29;;;;;;;21.30;8.82;;;;;;;;;;4999081;28;20054;-76
2021/12/11 06:36:15;;;;;;;20.02;7.72;;;;;;;;;;5000277;28;20339;-78
2021/12/11 06:38:43;;;;;;;22.85;6.13;;;;;;;;;;4999858;28;20018;-78
2021/12/11 06:41:11;;;;;;;22.63;7.18;;;;;;;;;;5003840;23;20053;-78
2021/12/11 06:43:37;;;;;;;27.92;6.50;;;;;;;;;;4999950;28;20026;-78
2021/12/11 06:46:04;;;;;;;22.65;7.13;;;;;;;;;;5000035;28;20352;-78
2021/12/11 06:48:30;;;;;;;12.15;5.43;;;;;;;;;;5000045;28;20019;-77
2021/12/11 06:50:57;;;;;;;19.60;6.38;;;;;;;;;;4999776;28;20352;-77
2021/12/11 06:53:26;;;;;;;15.20;6.85;;;;;;;;;;4998665;28;20029;-78
2021/12/11 06:55:52;;;;;;;20.77;7.18;;;;;;;;;;4999004;28;20496;-78
2021/12/11 06:58:18;;;;;;;19.48;6.65;;;;;;;;;;4999508;28;20184;-78
2021/12/11 07:00:44;;;;;;;14.48;5.43;;;;;;;;;;4999594;28;20046;-78
2021/12/11 07:03:10;;;;;;;15.57;5.88;;;;;;;;;;4998573;28;20434;-78
2021/12/11 07:05:37;;;;;;;27.33;8.25;;;;;;;;;;4998949;28;20066;-78
2021/12/11 07:08:05;;;;;;;25.17;8.07;;;;;;;;;;4999723;28;20160;-78
2021/12/11 07:10:32;;;;;;;15.52;5.78;;;;;;;;;;4999722;28;20294;-78
2021/12/11 07:12:58;;;;;;;32.92;6.57;;;;;;;;;;5014509;23;20030;-78
2021/12/11 07:15:24;;;;;;;26.05;5.65;;;;;;;;;;4999393;28;20091;-78
2021/12/11 07:17:50;;;;;;;16.00;4.25;;;;;;;;;;5000101;28;20026;-79
2021/12/11 07:20:17;;;;;;;11.35;5.22;;;;;;;;;;4997993;28;20403;-76
2021/12/11 07:22:43;;;;;;;10.02;3.90;;;;;;;;;;4997279;28;20032;-77
2021/12/11 07:25:26;;;;;;;22.08;6.28;;;;;;;;;;4998920;28;20364;-78
2021/12/11 07:27:53;;;;;;;15.93;4.65;;;;;;;;;;4998738;28;20113;-77
2021/12/11 07:30:19;;;;;;;10.75;4.07;;;;;;;;;;4999378;28;20019;-77
2021/12/11 07:32:46;;;;;;;11.23;4.90;;;;;;;;;;5000330;28;20118;-78
2021/12/11 07:35:12;;;;;;;18.25;4.32;;;;;;;;;;4997527;28;20106;-78
2021/12/11 07:37:38;;;;;;;16.33;3.95;;;;;;;;;;4997930;28;20089;-77
2021/12/11 07:40:06;;;;;;;10.18;4.40;;;;;;;;;;4996800;28;20041;-76
2021/12/11 07:42:33;;;;;;;18.13;6.07;;;;;;;;;;5000408;28;20444;-77
2021/12/11 07:44:59;;;;;;;16.15;4.90;;;;;;;;;;4998938;28;20076;-76
2021/12/11 07:47:25;;;;;;;10.05;4.97;;;;;;;;;;4998329;28;20123;-76
2021/12/11 07:49:51;;;;;;;15.27;5.18;;;;;;;;;;4997918;28;20380;-76
2021/12/11 07:52:17;;;;;;;22.15;5.90;;;;;;;;;;4997435;28;20157;-76
2021/12/11 07:54:43;;;;;;;29.92;5.32;;;;;;;;;;4997809;28;20106;-76
2021/12/11 07:57:09;;;;;;;16.55;4.95;;;;;;;;;;4998476;28;20022;-78
2021/12/11 07:59:35;;;;;;;10.80;4.68;;;;;;;;;;4998474;28;20132;-77
2021/12/11 08:02:00;;;;;;;19.13;4.88;;;;;;;;;;4998488;28;20054;-77
2021/12/11 08:04:26;;;;;;;15.25;4.68;;;;;;;;;;4998249;28;20417;-76
2021/12/11 08:06:52;;;;;;;9.70;4.35;;;;;;;;;;4998059;28;20093;-77
2021/12/11 08:09:20;;;;;;;9.80;4.20;;;;;;;;;;4996867;28;20022;-76
2021/12/11 08:11:46;;;;;;;12.88;4.55;;;;;;;;;;4997958;28;20015;-77
2021/12/11 08:14:13;;;;;;;18.20;5.45;;;;;;;;;;4997766;28;20056;-76
2021/12/11 08:16:46;;;;;;;10.32;4.70;;;;;;;;;;4997631;28;20034;-75
2021/12/11 08:19:14;;;;;;;15.82;3.95;;;;;;;;;;4997969;28;20033;-77
2021/12/11 08:21:40;;;;;;;13.57;5.00;;;;;;;;;;4997474;28;20374;-75
2021/12/11 08:24:07;;;;;;;34.85;6.55;;;;;;;;;;4997798;28;20026;-75
2021/12/11 08:26:34;;;;;;;13.00;4.20;;;;;;;;;;4997315;28;20062;-76
2021/12/11 08:29:00;;;;;;;24.60;4.63;;;;;;;;;;4997844;28;20329;-75
2021/12/11 08:31:26;;;;;;;24.27;4.72;;;;;;;;;;4996267;28;20027;-76
2021/12/11 08:33:53;;;;;;;13.50;4.05;;;;;;;;;;4996819;28;20069;-78
2021/12/11 08:36:20;;;;;;;18.95;5.95;;;;;;;;;;4980549;28;20113;-76
2021/12/11 08:38:47;;;;;;;15.98;5.43;;;;;;;;;;4997431;28;20073;-76
2021/12/11 08:41:14;;;;;;;20.08;6.28;;;;;;;;;;4997296;28;20022;-76
2021/12/11 08:43:41;;;;;;;11.73;4.70;;;;;;;;;;4997338;28;20022;-76
2021/12/11 08:46:14;;;;;;;24.48;5.55;;;;;;;;;;4997663;28;20035;-75
2021/12/11 08:48:44;;;;;;;16.33;5.70;;;;;;;;;;4997215;28;20033;-75
2021/12/11 08:51:16;;;;;;;13.88;6.47;;;;;;;;;;4997309;28;20022;-75
2021/12/11 08:53:41;;;;;;;24.50;9.25;;;;;;;;;;4997976;28;20101;-75
2021/12/11 08:56:10;;;;;;;15.15;5.05;;;;;;;;;;4996652;28;20114;-75
2021/12/11 08:58:36;;;;;;;15.48;5.18;;;;;;;;;;4996470;28;20028;-75
2021/12/11 09:01:11;;;;;;;15.77;6.00;;;;;;;;;;4996164;28;20451;-75
2021/12/11 09:03:41;;;;;;;11.63;4.72;;;;;;;;;;4997060;28;20053;-77
2021/12/11 09:06:36;;;;;;;14.48;5.50;;;;;;;;;;4997343;28;20034;-77
2021/12/11 09:09:22;;;;;;;13.25;5.55;;;;;;;;;;4989725;28;20028;-77
2021/12/11 09:11:51;;;;;;;18.38;4.88;;;;;;;;;;4996406;28;20029;-75
2021/12/11 09:14:24;;;;;;;14.85;5.20;;;;;;;;;;4996074;28;20345;-75
2021/12/11 09:17:00;;;;;;;11.88;4.80;;;;;;;;;;4997425;28;20023;-75
2021/12/11 09:19:29;;;;;;;12.98;5.50;;;;;;;;;;4997005;28;20030;-76
2021/12/11 09:22:14;;;;;;;15.60;5.22;;;;;;;;;;4996877;28;20023;-76
2021/12/11 09:24:49;;;;;;;20.13;6.50;;;;;;;;;;4996402;28;20340;-76
2021/12/11 09:27:41;;;;;;;19.50;7.10;;;;;;;;;;4997744;28;20046;-76
2021/12/11 09:30:13;;;;;;;23.42;7.18;;;;;;;;;;4994378;28;20120;-76
2021/12/11 09:32:47;;;;;;;14.98;6.80;;;;;;;;;;4996122;28;20425;-76
2021/12/11 09:35:21;;;;;;;37.47;9.70;;;;;;;;;;4995171;28;20022;-75
2021/12/11 09:37:48;;;;;;;20.23;8.05;;;;;;;;;;4996515;28;20022;-76
2021/12/11 09:40:34;;;;;;;16.88;8.27;;;;;;;;;;4996318;28;20490;-76
2021/12/11 09:43:01;;;;;;;34.13;12.43;;;;;;;;;;4991042;28;20056;-76
2021/12/11 09:45:29;;;;;;;28.30;10.30;;;;;;;;;;4996143;28;20433;-76
2021/12/11 09:48:01;;;;;;;40.72;11.25;;;;;;;;;;4997312;28;20414;-76
2021/12/11 09:50:31;;;;;;;43.05;10.18;;;;;;;;;;4997669;28;20022;-76
2021/12/11 09:52:57;;;;;;;18.80;8.85;;;;;;;;;;4996158;28;20018;-75
2021/12/11 09:55:27;;;;;;;29.90;11.15;;;;;;;;;;4996615;28;20501;-76
2021/12/11 09:57:56;;;;;;;27.23;11.55;;;;;;;;;;4998632;28;20032;-76
2021/12/11 10:00:30;;;;;;;31.15;13.88;;;;;;;;;;4996060;28;20460;-76
2021/12/11 10:02:57;;;;;;;27.08;11.23;;;;;;;;;;4997291;28;20022;-75
2021/12/11 10:05:30;;;;;;;36.63;9.45;;;;;;;;;;4996814;28;20019;-76
2021/12/11 10:10:51;;;;;;;43.88;11.48;;;;;;;;;;4997704;28;20021;-76
2021/12/11 10:13:17;;;;;;;38.55;10.65;;;;;;;;;;4997151;28;20437;-76
2021/12/11 10:15:43;;;;;;;34.08;11.20;;;;;;;;;;4997035;28;20120;-76
2021/12/11 10:18:14;;;;;;;31.45;9.98;;;;;;;;;;4979762;28;20022;-76
2021/12/11 10:20:49;;;;;;;37.38;13.27;;;;;;;;;;4995843;28;20018;-76
2021/12/11 10:23:17;;;;;;;31.63;11.38;;;;;;;;;;4997449;28;20417;-75
2021/12/11 10:25:44;;;;;;;41.33;12.30;;;;;;;;;;4997196;28;20050;-76
2021/12/11 10:28:13;;;;;;;52.92;15.80;;;;;;;;;;4996999;28;20328;-76
2021/12/11 10:30:44;;;;;;;31.42;11.82;;;;;;;;;;4997383;28;20061;-76
2021/12/11 10:33:10;;;;;;;34.42;10.85;;;;;;;;;;4995537;28;20021;-75
2021/12/11 10:35:39;;;;;;;27.90;11.73;;;;;;;;;;4998709;28;20033;-76
2021/12/11 10:38:06;;;;;;;29.10;11.55;;;;;;;;;;4999378;28;20026;-76
2021/12/11 10:40:35;;;;;;;31.95;13.45;;;;;;;;;;5000205;28;20019;-77
2021/12/11 10:43:06;;;;;;;29.48;14.88;;;;;;;;;;5000591;28;20033;-75
2021/12/11 10:45:32;;;;;;;38.65;16.75;;;;;;;;;;4998964;28;20475;-76
2021/12/11 10:48:00;;;;;;;47.05;17.17;;;;;;;;;;4998954;28;20113;-77
2021/12/11 10:50:26;;;;;;;37.53;16.92;;;;;;;;;;4999457;28;20022;-77
2021/12/11 10:52:53;;;;;;;33.92;16.88;;;;;;;;;;5000228;28;20425;-77
2021/12/11 10:55:21;;;;;;;34.40;16.17;;;;;;;;;;4999206;28;20022;-77
2021/12/11 10:57:50;;;;;;;39.60;16.25;;;;;;;;;;4999649;28;20015;-77
2021/12/11 11:00:23;;;;;;;41.60;16.35;;;;;;;;;;5000511;28;20404;-77
2021/12/11 11:02:49;;;;;;;42.78;18.27;;;;;;;;;;4998455;28;20073;-77
2021/12/11 11:05:17;;;;;;;39.05;16.85;;;;;;;;;;4999708;28;20045;-78
2021/12/11 11:07:44;;;;;;;28.88;14.73;;;;;;;;;;5008904;23;20396;-76
2021/12/11 11:10:20;;;;;;;42.60;17.73;;;;;;;;;;4999976;28;20033;-77
2021/12/11 11:12:47;;;;;;;33.50;16.17;;;;;;;;;;4999818;28;20129;-77
2021/12/11 11:15:14;;;;;;;54.03;18.40;;;;;;;;;;4999564;28;20048;-77
2021/12/11 11:17:40;;;;;;;43.17;13.05;;;;;;;;;;5001523;28;20109;-77
2021/12/11 11:20:09;;;;;;;39.92;15.50;;;;;;;;;;4998572;28;20022;-77
2021/12/11 11:22:36;;;;;;;40.38;17.58;;;;;;;;;;4999452;28;20088;-77
2021/12/11 11:25:08;;;;;;;49.67;17.10;;;;;;;;;;4998695;28;20022;-77
2021/12/11 11:27:34;;;;;;;38.83;14.88;;;;;;;;;;4999027;28;20547;-77
2021/12/11 11:30:00;;;;;;;45.92;16.73;;;;;;;;;;5010245;23;20129;-82
2021/12/11 11:32:31;;;;;;;33.97;17.15;;;;;;;;;;5002391;28;20495;-81
2021/12/11 11:34:59;;;;;;;39.78;14.50;;;;;;;;;;5001841;28;20337;-82
2021/12/11 11:37:25;;;;;;;49.60;18.95;;;;;;;;;;5000544;28;20433;-81
2021/12/11 11:39:51;;;;;;;50.50;21.40;;;;;;;;;;4983201;28;20018;-82
2021/12/11 11:42:20;;;;;;;53.00;19.75;;;;;;;;;;4983030;28;20164;-82
2021/12/11 11:44:47;;;;;;;41.25;20.50;;;;;;;;;;4983328;28;20041;-82
2021/12/11 11:47:14;;;;;;;41.65;18.65;;;;;;;;;;4982592;28;20046;-82
2021/12/11 11:49:40;;;;;;;37.58;17.33;;;;;;;;;;5000723;28;20073;-82
2021/12/11 11:52:09;;;;;;;50.38;19.15;;;;;;;;;;5000257;28;20016;-82
2021/12/11 11:54:37;;;;;;;35.05;15.52;;;;;;;;;;4982645;28;20026;-82
2021/12/11 11:57:07;;;;;;;27.48;13.10;;;;;;;;;;5000833;28;20022;-82
2021/12/11 11:59:34;;;;;;;34.20;17.13;;;;;;;;;;4999792;28;20018;-82
2021/12/11 12:02:03;;;;;;;42.33;14.00;;;;;;;;;;5000685;28;20431;-82
2021/12/11 12:04:31;;;;;;;29.10;15.02;;;;;;;;;;5000347;28;20329;-82
2021/12/11 12:07:00;;;;;;;44.95;17.88;;;;;;;;;;4999954;28;20429;-82
2021/12/11 12:09:27;;;;;;;44.83;18.63;;;;;;;;;;5001171;28;20397;-82
2021/12/11 12:11:54;;;;;;;40.83;20.20;;;;;;;;;;4999934;28;20029;-82
2021/12/11 12:14:22;;;;;;;47.85;23.33;;;;;;;;;;5030568;23;20529;-77
2021/12/11 12:16:49;;;;;;;63.28;27.45;;;;;;;;;;5043471;23;20103;-77
2021/12/11 12:19:15;;;;;;;60.83;23.25;;;;;;;;;;5023109;23;20030;-83
2021/12/11 12:21:42;;;;;;;59.30;26.98;;;;;;;;;;5000335;28;20014;-82
2021/12/11 12:24:09;;;;;;;64.57;30.38;;;;;;;;;;4997825;28;20037;-83
2021/12/11 12:26:36;;;;;;;61.00;26.98;;;;;;;;;;4998955;28;20030;-83
2021/12/11 12:29:03;;;;;;;60.47;32.28;;;;;;;;;;5000045;28;20025;-83
2021/12/11 12:33:56;;;;;;;58.63;30.83;;;;;;;;;;5040248;23;20624;-77
2021/12/11 12:36:23;;;;;;;71.00;33.63;;;;;;;;;;4999007;28;20030;-77
2021/12/11 12:38:49;;;;;;;65.82;30.95;;;;;;;;;;4998904;28;20400;-77
2021/12/11 12:41:21;;;;;;;66.50;32.92;;;;;;;;;;4999144;28;20018;-77
2021/12/11 12:46:18;;;;;;;78.97;36.50;;;;;;;;;;4999051;28;20034;-77
2021/12/11 12:48:44;;;;;;;74.78;40.20;;;;;;;;;;5012937;23;20109;-77
2021/12/11 12:51:11;;;;;;;81.00;39.35;;;;;;;;;;4997464;28;20144;-77
2021/12/11 12:53:38;;;;;;;87.93;37.97;;;;;;;;;;5017132;23;20066;-77
2021/12/11 12:56:07;;;;;;;97.88;40.55;;;;;;;;;;4999761;28;20030;-78
2021/12/11 12:58:36;;;;;;;84.50;36.85;;;;;;;;;;4999458;28;20344;-78
2021/12/11 13:01:14;;;;;;;79.53;35.95;;;;;;;;;;4997927;28;20093;-77
2021/12/11 13:03:41;;;;;;;78.15;40.25;;;;;;;;;;4998965;28;20018;-78
2021/12/11 13:06:10;;;;;;;95.57;42.15;;;;;;;;;;4998986;28;20032;-77
2021/12/11 13:08:42;;;;;;;79.47;39.45;;;;;;;;;;4997632;28;20109;-77
2021/12/11 13:11:14;;;;;;;73.60;39.33;;;;;;;;;;4998019;28;20383;-77
2021/12/11 13:13:40;;;;;;;92.15;39.08;;;;;;;;;;4999417;28;20041;-78
2021/12/11 13:16:08;;;;;;;87.22;38.78;;;;;;;;;;4998349;28;20080;-78
2021/12/11 13:18:37;;;;;;;80.78;40.45;;;;;;;;;;4996986;28;20089;-77
2021/12/11 13:21:05;;;;;;;94.30;46.20;;;;;;;;;;4998786;28;20022;-77
2021/12/11 13:23:33;;;;;;;84.22;44.15;;;;;;;;;;4998453;28;20042;-77
2021/12/11 13:26:00;;;;;;;96.10;45.88;;;;;;;;;;4997268;28;20415;-78
2021/12/11 13:28:27;;;;;;;146.65;62.13;;;;;;;;;;4997195;28;20433;-77
2021/12/11 13:30:56;;;;;;;230.75;117.93;;;;;;;;;;4997963;28;20026;-77
2021/12/11 13:33:24;;;;;;;220.95;114.30;;;;;;;;;;5000085;28;20018;-77
2021/12/11 13:35:50;;;;;;;204.35;103.93;;;;;;;;;;4999798;28;20014;-78
2021/12/11 13:38:18;;;;;;;202.20;97.70;;;;;;;;;;4998365;28;20081;-77
2021/12/11 13:40:50;;;;;;;209.05;99.68;;;;;;;;;;5015490;23;20042;-82
2021/12/11 13:43:16;;;;;;;194.07;91.53;;;;;;;;;;4997790;28;20026;-82
2021/12/11 13:48:10;;;;;;;120.75;51.60;;;;;;;;;;5079861;23;20058;-81
2021/12/11 13:50:40;;;;;;;97.78;46.80;;;;;;;;;;5045252;23;20125;-81
2021/12/11 13:53:06;;;;;;;87.68;40.70;;;;;;;;;;4997695;28;20389;-82
2021/12/11 13:55:33;;;;;;;81.10;40.42;;;;;;;;;;4996718;28;20030;-81
2021/12/11 13:58:01;;;;;;;81.47;37.97;;;;;;;;;;4997964;28;20022;-81
2021/12/11 14:00:33;;;;;;;78.68;36.75;;;;;;;;;;4998248;28;20069;-82
2021/12/11 14:02:59;;;;;;;90.05;42.97;;;;;;;;;;4998464;28;20373;-81
2021/12/11 14:05:27;;;;;;;85.63;46.22;;;;;;;;;;4996429;28;20417;-81
2021/12/11 14:07:53;;;;;;;93.30;49.00;;;;;;;;;;4982140;28;20041;-82
2021/12/11 14:10:27;;;;;;;113.00;50.05;;;;;;;;;;5001512;28;20073;-81
2021/12/11 14:12:56;;;;;;;105.40;44.97;;;;;;;;;;5003441;28;20113;-82
2021/12/11 14:15:22;;;;;;;83.97;44.92;;;;;;;;;;5001603;28;20029;-82
2021/12/11 14:17:49;;;;;;;86.22;44.63;;;;;;;;;;5001633;28;20042;-82
2021/12/11 14:20:16;;;;;;;95.68;45.80;;;;;;;;;;5001026;28;20030;-82
2021/12/11 14:22:42;;;;;;;94.72;45.42;;;;;;;;;;5003596;28;20049;-82
2021/12/11 14:25:10;;;;;;;106.15;47.22;;;;;;;;;;5001864;28;20336;-82
2021/12/11 14:27:36;;;;;;;89.90;41.85;;;;;;;;;;5002071;28;20428;-82
2021/12/11 14:30:04;;;;;;;82.57;43.15;;;;;;;;;;5002070;28;20026;-82
2021/12/11 14:32:34;;;;;;;84.63;43.35;;;;;;;;;;5002766;28;20097;-82
2021/12/11 14:35:01;;;;;;;87.40;40.47;;;;;;;;;;5000363;28;20467;-82
2021/12/11 14:37:27;;;;;;;85.13;40.55;;;;;;;;;;5003304;28;20413;-82
2021/12/11 14:39:53;;;;;;;81.68;43.20;;;;;;;;;;4985792;28;20030;-82
2021/12/11 14:42:22;;;;;;;79.40;40.22;;;;;;;;;;5031107;23;20162;-82
2021/12/11 14:44:49;;;;;;;78.93;41.53;;;;;;;;;;4999811;28;20034;-82
2021/12/11 14:47:16;;;;;;;78.22;38.40;;;;;;;;;;4983807;28;20064;-81
2021/12/11 14:49:43;;;;;;;77.68;37.72;;;;;;;;;;5000298;28;20023;-81
2021/12/11 14:52:10;;;;;;;87.63;37.42;;;;;;;;;;5001797;28;20069;-82
2021/12/11 14:54:37;;;;;;;78.63;39.85;;;;;;;;;;5002103;28;20023;-82
2021/12/11 14:57:04;;;;;;;72.70;37.80;;;;;;;;;;5001928;28;20022;-81
2021/12/11 14:59:38;;;;;;;84.88;40.53;;;;;;;;;;4983413;28;20038;-82
2021/12/11 15:02:04;;;;;;;97.03;44.38;;;;;;;;;;4999716;28;20019;-82
2021/12/11 15:04:32;;;;;;;82.25;44.35;;;;;;;;;;5001423;28;20022;-82
2021/12/11 15:06:59;;;;;;;85.68;44.42;;;;;;;;;;5001938;28;20030;-82
2021/12/11 15:09:25;;;;;;;95.03;43.53;;;;;;;;;;5000639;28;20102;-81
2021/12/11 15:11:55;;;;;;;93.65;43.53;;;;;;;;;;4983755;28;20054;-81
2021/12/11 15:14:22;;;;;;;88.97;46.60;;;;;;;;;;5000063;28;20097;-81
2021/12/11 15:16:51;;;;;;;87.30;40.25;;;;;;;;;;5000371;28;20018;-81
2021/12/11 15:19:18;;;;;;;76.07;38.58;;;;;;;;;;5002219;28;20027;-81
2021/12/11 15:21:44;;;;;;;77.43;38.42;;;;;;;;;;5001820;28;20405;-84
2021/12/11 15:24:10;;;;;;;75.45;35.22;;;;;;;;;;4999251;28;20033;-81
2021/12/11 15:26:39;;;;;;;85.95;39.90;;;;;;;;;;4999086;28;20136;-83
2021/12/11 15:29:08;;;;;;;91.35;35.92;;;;;;;;;;5002215;28;20019;-83
2021/12/11 15:31:36;;;;;;;70.40;34.35;;;;;;;;;;4984480;28;20022;-83
2021/12/11 15:34:03;;;;;;;85.18;36.40;;;;;;;;;;4998996;28;20018;-83
2021/12/11 15:36:31;;;;;;;75.18;33.28;;;;;;;;;;4982830;28;20049;-81
2021/12/11 15:38:59;;;;;;;71.75;31.55;;;;;;;;;;4983538;28;20344;-81
2021/12/11 15:41:26;;;;;;;83.65;30.52;;;;;;;;;;5000050;28;20356;-81
2021/12/11 15:43:54;;;;;;;68.93;30.73;;;;;;;;;;5001228;28;20026;-83
2021/12/11 15:46:22;;;;;;;74.88;30.38;;;;;;;;;;4982809;28;20041;-81
2021/12/11 15:48:49;;;;;;;70.05;32.75;;;;;;;;;;4982612;28;20040;-83
2021/12/11 15:51:17;;;;;;;73.88;33.95;;;;;;;;;;4998071;28;20436;-83
2021/12/11 15:53:43;;;;;;;70.30;29.05;;;;;;;;;;4983779;28;20077;-83
2021/12/11 15:56:09;;;;;;;73.85;31.35;;;;;;;;;;5001488;28;20019;-83
2021/12/11 15:58:40;;;;;;;101.90;37.70;;;;;;;;;;4983755;28;20029;-83
2021/12/11 16:01:08;;;;;;;81.47;33.95;;;;;;;;;;5000170;28;20030;-83
2021/12/11 16:03:35;;;;;;;72.97;30.02;;;;;;;;;;4998872;28;20088;-83
2021/12/11 16:06:04;;;;;;;72.10;31.77;;;;;;;;;;4998666;28;20026;-83